Strona główna
METAR-TAF:

METAR-TAF

Lotnisko :

Nawakszut, Mauretania

Port lotniczy Nawakszut

Szerokość geograficzna: 18-18-36N, Długość geograficzna: 015-58-11W, wysokość: 3 m

Aktualna obserwacja pogody

Raport powstał 16 minut temu, godzina 03:30 UTC
Wiatr 7 kt od północno-północny wschód
Temperatura 14°C
Wilgotność 44%
Ciśnienie 1017 hPa
Widzialność: 4000 m
zawieja pyłowa

METAR: GQNO 180330Z 03007KT 4000 BLDU NSC 14/02 Q1017 NOSIG

czas: 03:46 (03:46 UTC)

Prognoza

Raport powstał 4 godziny i 46 minut temu, godzina 23:00 UTC
Prognoza ważna od 18 godzina 00 UTC do 19 godzina 06 UTC
Wiatr 5 kt od północny wschód
Widzialność: 6000 m
Stopniowe zmiany
od 18 godzina 08 UTC do 18 godzina 10 UTC
Wiatr 15 kt od północny wschód
Widzialność: 4000 m
zawieja pyłowa
Stopniowe zmiany
od 18 godzina 18 UTC do 18 godzina 20 UTC
Wiatr 8 kt od północno-północny wschód
Widzialność: 6000 m

TAF: GQNO 172300Z 1800/1906 04005KT 6000 NSC BECMG 1808/1810 04015KT 4000 BLDU BECMG 1818/1820 03008KT 6000 NSW

Obserwacja i prognoza pogody dla ponad 4000 lotnisk (raport METAR i TAF).

Dostępne stacje oznaczono żółtymi i czerwonymi punktami na mapie.

Najedź kursorem aby zobaczyć nazwę stacji.

Kliknij aby zobaczyć obserwacje i prognozy pogody.

Aby zmienić mapę: kliknij na zielony przycisk z czarnym krzyżykiem, aby powiększyć; na zielony przycisk z myślnikiem, aby pomniejszyć; na zielone strzałki, aby przejść do map sąsiednich.


METAR-TAF: